createdAt,value
2022-07-25T00:00:47.613Z,8.70
2022-07-25T00:01:47.665Z,8.50
2022-07-25T00:02:47.602Z,8.20
2022-07-25T00:03:47.608Z,8.70
2022-07-25T00:04:47.712Z,9.60
2022-07-25T00:05:47.574Z,9.00
2022-07-25T00:06:47.570Z,8.40
2022-07-25T00:07:47.556Z,8.80
2022-07-25T00:08:47.794Z,10.00
2022-07-25T00:09:47.545Z,8.70
2022-07-25T00:10:47.547Z,8.80
2022-07-25T00:11:47.535Z,9.20
2022-07-25T00:12:47.525Z,8.90
2022-07-25T00:13:47.533Z,8.40
2022-07-25T00:14:47.554Z,8.50
2022-07-25T00:15:47.539Z,8.20
2022-07-25T00:16:47.489Z,8.40
2022-07-25T00:17:47.484Z,8.40
2022-07-25T00:18:47.513Z,8.90
2022-07-25T00:19:47.463Z,9.60
2022-07-25T00:20:47.458Z,8.60
2022-07-25T00:21:47.448Z,8.50
2022-07-25T00:22:47.465Z,8.00
2022-07-25T00:23:47.448Z,8.10
2022-07-25T00:24:47.430Z,8.80
2022-07-25T00:25:47.420Z,8.20
2022-07-25T00:26:47.413Z,9.00
2022-07-25T00:27:47.403Z,9.60
2022-07-25T00:28:47.947Z,8.90
2022-07-25T00:29:47.392Z,8.70
2022-07-25T00:30:47.411Z,10.30
2022-07-25T00:31:47.451Z,9.40
2022-07-25T00:32:47.366Z,9.70
2022-07-25T00:33:47.482Z,9.40
2022-07-25T00:34:47.350Z,8.70
2022-07-25T00:35:47.344Z,9.10
2022-07-25T00:36:47.334Z,9.80
2022-07-25T00:37:47.330Z,8.80
2022-07-25T00:38:47.339Z,8.30
2022-07-25T00:39:47.309Z,9.00
2022-07-25T00:40:47.306Z,9.50
2022-07-25T00:41:48.287Z,8.80
2022-07-25T00:42:47.292Z,8.50
2022-07-25T00:43:47.300Z,9.30
2022-07-25T00:44:47.274Z,9.00
2022-07-25T00:45:47.272Z,9.90
2022-07-25T00:46:47.308Z,10.20
2022-07-25T00:47:47.248Z,9.60
2022-07-25T00:48:47.301Z,8.70
2022-07-25T00:49:47.232Z,8.30
2022-07-25T00:50:47.228Z,8.40
2022-07-25T00:51:47.221Z,9.60
2022-07-25T00:52:47.225Z,8.80
2022-07-25T00:53:47.226Z,8.90
2022-07-25T00:54:47.197Z,8.90
2022-07-25T00:55:47.183Z,9.00
2022-07-25T00:56:47.179Z,8.70
2022-07-25T00:57:47.169Z,9.40
2022-07-25T00:58:47.180Z,8.50
2022-07-25T00:59:47.157Z,9.00
2022-07-25T01:00:47.152Z,8.80
2022-07-25T01:01:47.203Z,9.90
2022-07-25T01:02:47.195Z,10.00
2022-07-25T01:03:47.146Z,8.30
2022-07-25T01:04:47.121Z,9.00
2022-07-25T01:05:53.093Z,9.20
2022-07-25T01:06:48.106Z,10.10
2022-07-25T01:07:47.099Z,9.40
2022-07-25T01:08:47.090Z,9.40
2022-07-25T01:09:47.094Z,9.50
2022-07-25T01:10:47.078Z,9.10
2022-07-25T01:11:47.065Z,9.20
2022-07-25T01:12:47.055Z,8.20
2022-07-25T01:13:47.046Z,9.50
2022-07-25T01:14:47.063Z,9.20
2022-07-25T01:15:47.167Z,9.30
2022-07-25T01:16:47.026Z,9.60
2022-07-25T01:17:47.018Z,8.80
2022-07-25T01:18:47.059Z,10.00
2022-07-25T01:19:47.015Z,9.20
2022-07-25T01:20:46.991Z,9.60
2022-07-25T01:21:46.985Z,10.20
2022-07-25T01:22:46.978Z,9.40
2022-07-25T01:23:46.965Z,9.50
2022-07-25T01:24:46.976Z,8.50
2022-07-25T01:25:46.949Z,9.00
2022-07-25T01:26:46.943Z,9.40
2022-07-25T01:27:51.264Z,9.60
2022-07-25T01:28:46.927Z,10.70
2022-07-25T01:29:46.931Z,9.50
2022-07-25T01:30:46.957Z,9.10
2022-07-25T01:31:46.905Z,9.20
2022-07-25T01:32:46.898Z,8.60
2022-07-25T01:33:46.885Z,10.00
2022-07-25T01:34:46.934Z,10.20
2022-07-25T01:35:46.869Z,8.80
2022-07-25T01:36:46.865Z,10.50
2022-07-25T01:37:46.849Z,9.30
2022-07-25T01:38:47.028Z,10.10
2022-07-25T01:39:46.849Z,9.10
2022-07-25T01:40:46.843Z,9.60
2022-07-25T01:41:46.829Z,9.10
2022-07-25T01:42:46.813Z,9.20
2022-07-25T01:43:46.800Z,8.80
2022-07-25T01:44:47.154Z,9.30
2022-07-25T01:45:46.839Z,9.70
2022-07-25T01:46:46.869Z,8.80
2022-07-25T01:47:46.777Z,9.30
2022-07-25T01:48:46.839Z,9.50
2022-07-25T01:49:46.796Z,9.80
2022-07-25T01:50:46.754Z,8.80
2022-07-25T01:51:46.950Z,10.00
2022-07-25T01:52:46.737Z,8.80
2022-07-25T01:53:46.742Z,9.80
2022-07-25T01:54:46.762Z,8.90
2022-07-25T01:55:46.901Z,9.70
2022-07-25T01:56:48.299Z,8.60
2022-07-25T01:57:49.874Z,9.70
2022-07-25T01:58:46.701Z,11.00
2022-07-25T01:59:46.703Z,8.60
2022-07-25T02:00:46.738Z,8.60
2022-07-25T02:01:46.810Z,9.20
2022-07-25T02:02:46.675Z,9.50
2022-07-25T02:03:46.650Z,9.20
2022-07-25T02:04:46.751Z,9.50
2022-07-25T02:05:46.638Z,9.40
2022-07-25T02:06:46.633Z,8.90
2022-07-25T02:07:46.619Z,9.20
2022-07-25T02:08:46.616Z,8.80
2022-07-25T02:09:46.735Z,10.00
2022-07-25T02:10:46.625Z,9.90
2022-07-25T02:11:46.606Z,10.10
2022-07-25T02:12:46.592Z,10.20
2022-07-25T02:13:46.597Z,9.60
2022-07-25T02:14:46.613Z,9.70
2022-07-25T02:15:46.603Z,8.60
2022-07-25T02:16:46.647Z,8.90
2022-07-25T02:17:46.570Z,10.10
2022-07-25T02:18:46.600Z,9.70
2022-07-25T02:19:46.564Z,10.80
2022-07-25T02:20:46.566Z,8.70
2022-07-25T02:21:46.638Z,9.90
2022-07-25T02:22:46.695Z,10.50
2022-07-25T02:23:46.508Z,10.00
2022-07-25T02:24:46.536Z,10.60
2022-07-25T02:25:46.497Z,11.00
2022-07-25T02:26:46.665Z,9.30
2022-07-25T02:27:46.594Z,9.00
2022-07-25T02:28:46.497Z,10.60
2022-07-25T02:29:46.501Z,9.60
2022-07-25T02:30:46.581Z,10.20
2022-07-25T02:31:46.467Z,8.80
2022-07-25T02:32:46.548Z,9.80
2022-07-25T02:33:46.446Z,9.00
2022-07-25T02:34:46.460Z,9.30
2022-07-25T02:35:46.408Z,9.90
2022-07-25T02:36:46.421Z,9.30
2022-07-25T02:37:46.477Z,9.90
2022-07-25T02:38:46.415Z,10.00
2022-07-25T02:39:46.393Z,9.90
2022-07-25T02:40:46.368Z,9.70
2022-07-25T02:41:46.371Z,9.80
2022-07-25T02:42:46.606Z,9.60
2022-07-25T02:43:46.341Z,9.10
2022-07-25T02:44:46.349Z,9.80
2022-07-25T02:45:46.362Z,9.20
2022-07-25T02:46:46.325Z,9.30
2022-07-25T02:47:46.314Z,8.80
2022-07-25T02:48:46.374Z,9.90
2022-07-25T02:49:46.431Z,9.30
2022-07-25T02:50:46.315Z,9.20
2022-07-25T02:51:46.298Z,10.40
2022-07-25T02:52:46.314Z,8.90
2022-07-25T02:53:57.022Z,9.50
2022-07-25T02:54:47.282Z,8.60
2022-07-25T02:55:46.268Z,9.30
2022-07-25T02:56:46.294Z,9.40
2022-07-25T02:57:46.294Z,9.50
2022-07-25T02:58:46.235Z,8.80
2022-07-25T02:59:46.633Z,9.70
2022-07-25T03:00:46.222Z,9.40
2022-07-25T03:01:46.278Z,11.20
2022-07-25T03:02:46.204Z,9.90
2022-07-25T03:03:46.327Z,9.40
2022-07-25T03:04:46.188Z,9.20
2022-07-25T03:05:46.201Z,9.40
2022-07-25T03:06:46.172Z,10.60
2022-07-25T03:07:46.173Z,9.60
2022-07-25T03:08:46.161Z,9.20
2022-07-25T03:09:46.171Z,9.00
2022-07-25T03:10:46.156Z,8.90
2022-07-25T03:11:46.140Z,9.40
2022-07-25T03:12:46.134Z,8.90
2022-07-25T03:13:46.125Z,8.90
2022-07-25T03:14:46.237Z,9.10
2022-07-25T03:15:46.125Z,9.20
2022-07-25T03:16:46.181Z,8.90
2022-07-25T03:17:46.110Z,10.90
2022-07-25T03:18:46.100Z,9.20
2022-07-25T03:19:46.084Z,9.30
2022-07-25T03:20:46.212Z,10.00
2022-07-25T03:21:46.060Z,9.40
2022-07-25T03:22:46.049Z,10.10
2022-07-25T03:23:52.013Z,9.90
2022-07-25T03:24:47.049Z,9.40
2022-07-25T03:25:46.080Z,9.80
2022-07-25T03:26:46.028Z,9.30
2022-07-25T03:27:46.018Z,9.50
2022-07-25T03:28:46.002Z,10.00
2022-07-25T03:29:46.004Z,10.10
2022-07-25T03:30:45.997Z,9.50
2022-07-25T03:31:46.068Z,10.20
2022-07-25T03:32:45.997Z,9.80
2022-07-25T03:33:45.967Z,9.40
2022-07-25T03:34:45.964Z,10.10
2022-07-25T03:35:45.981Z,10.40
2022-07-25T03:36:45.942Z,10.50
2022-07-25T03:37:45.944Z,10.30
2022-07-25T03:38:45.927Z,9.50
2022-07-25T03:39:45.919Z,10.00
2022-07-25T03:40:45.928Z,9.20
2022-07-25T03:41:45.908Z,9.70
2022-07-25T03:42:45.895Z,10.10
2022-07-25T03:43:45.903Z,9.50
2022-07-25T03:44:45.886Z,10.80
2022-07-25T03:45:46.017Z,9.40
2022-07-25T03:46:45.872Z,10.40
2022-07-25T03:47:45.868Z,9.60
2022-07-25T03:48:45.935Z,10.40
2022-07-25T03:49:45.851Z,9.90
2022-07-25T03:50:45.852Z,10.10
2022-07-25T03:51:45.847Z,9.70
2022-07-25T03:52:45.824Z,10.70
2022-07-25T03:53:45.820Z,9.20
2022-07-25T03:54:45.807Z,10.60
2022-07-25T03:55:45.820Z,9.80
2022-07-25T03:56:45.797Z,10.30
2022-07-25T03:57:45.793Z,11.50
2022-07-25T03:58:45.775Z,10.10
2022-07-25T03:59:45.775Z,10.20
2022-07-25T04:00:45.869Z,9.90
2022-07-25T04:01:45.761Z,10.20
2022-07-25T04:02:45.795Z,10.00
2022-07-25T04:03:45.746Z,9.60
2022-07-25T04:04:45.737Z,10.50
2022-07-25T04:05:47.791Z,9.70
2022-07-25T04:06:45.718Z,9.30
2022-07-25T04:07:45.713Z,10.00
2022-07-25T04:08:45.702Z,9.20
2022-07-25T04:09:45.704Z,10.20
2022-07-25T04:10:45.700Z,10.60
2022-07-25T04:11:45.688Z,9.40
2022-07-25T04:12:45.678Z,10.60
2022-07-25T04:13:45.664Z,10.40
2022-07-25T04:14:45.664Z,11.00
2022-07-25T04:15:45.673Z,10.50
2022-07-25T04:16:45.674Z,9.50
2022-07-25T04:17:45.647Z,10.20
2022-07-25T04:18:45.626Z,10.00
2022-07-25T04:19:45.627Z,10.60
2022-07-25T04:20:45.630Z,11.20
2022-07-25T04:21:45.610Z,9.70
2022-07-25T04:22:47.140Z,10.60
2022-07-25T04:23:45.597Z,10.30
2022-07-25T04:24:45.581Z,11.20
2022-07-25T04:25:45.591Z,9.40
2022-07-25T04:26:45.568Z,9.60
2022-07-25T04:27:45.561Z,9.20
2022-07-25T04:28:45.560Z,10.90
2022-07-25T04:29:45.550Z,10.10
2022-07-25T04:30:45.550Z,10.40
2022-07-25T04:31:45.555Z,9.80
2022-07-25T04:32:45.528Z,10.50
2022-07-25T04:33:45.520Z,10.00
2022-07-25T04:34:45.507Z,10.10
2022-07-25T04:35:45.521Z,10.10
2022-07-25T04:36:45.492Z,9.60
2022-07-25T04:37:45.489Z,11.30
2022-07-25T04:38:45.476Z,10.60
2022-07-25T04:39:45.476Z,9.80
2022-07-25T04:40:45.486Z,10.00
2022-07-25T04:41:45.452Z,9.70
2022-07-25T04:42:45.445Z,10.30
2022-07-25T04:43:48.733Z,11.40
2022-07-25T04:44:45.442Z,10.80
2022-07-25T04:45:45.498Z,9.50
2022-07-25T04:46:45.417Z,10.00
2022-07-25T04:47:45.423Z,10.90
2022-07-25T04:48:46.333Z,10.60
2022-07-25T04:49:45.403Z,10.40
2022-07-25T04:50:45.403Z,10.10
2022-07-25T04:51:45.466Z,9.80
2022-07-25T04:52:45.377Z,10.50
2022-07-25T04:53:45.373Z,11.40
2022-07-25T04:54:45.360Z,9.90
2022-07-25T04:55:45.372Z,10.70
2022-07-25T04:56:45.347Z,10.00
2022-07-25T04:57:45.348Z,10.10
2022-07-25T04:58:45.374Z,10.90
2022-07-25T04:59:45.332Z,10.10
2022-07-25T05:00:45.393Z,10.90
2022-07-25T05:01:45.339Z,9.80
2022-07-25T05:02:45.392Z,10.20
2022-07-25T05:03:50.572Z,11.10
2022-07-25T05:04:46.294Z,10.80
2022-07-25T05:05:46.299Z,10.30
2022-07-25T05:06:45.275Z,10.40
2022-07-25T05:07:45.272Z,10.60
2022-07-25T05:08:45.259Z,11.00
2022-07-25T05:09:45.249Z,10.80
2022-07-25T05:10:45.257Z,9.60
2022-07-25T05:11:48.015Z,11.40
2022-07-25T05:12:45.228Z,11.80
2022-07-25T05:13:45.223Z,10.80
2022-07-25T05:14:45.218Z,10.80
2022-07-25T05:15:45.225Z,11.00
2022-07-25T05:16:45.287Z,9.80
2022-07-25T05:17:45.198Z,10.10
2022-07-25T05:18:45.186Z,10.30
2022-07-25T05:19:45.181Z,11.40
2022-07-25T05:20:45.179Z,10.00
2022-07-25T05:21:45.166Z,11.20
2022-07-25T05:22:45.152Z,10.50
2022-07-25T05:23:45.153Z,10.50
2022-07-25T05:24:45.143Z,10.40
2022-07-25T05:25:45.153Z,9.40
2022-07-25T05:26:45.126Z,11.40
2022-07-25T05:27:45.161Z,11.40
2022-07-25T05:28:45.119Z,11.90
2022-07-25T05:29:45.116Z,10.60
2022-07-25T05:30:45.407Z,10.40
2022-07-25T05:31:45.135Z,10.80
2022-07-25T05:32:45.085Z,10.20
2022-07-25T05:33:45.081Z,11.10
2022-07-25T05:34:45.072Z,10.80
2022-07-25T05:35:45.121Z,9.90
2022-07-25T05:36:47.314Z,11.40
2022-07-25T05:37:45.055Z,10.30
2022-07-25T05:38:45.041Z,10.20
2022-07-25T05:39:45.033Z,11.20
2022-07-25T05:40:45.038Z,11.40
2022-07-25T05:41:45.022Z,10.70
2022-07-25T05:42:45.010Z,9.90
2022-07-25T05:43:45.003Z,10.40
2022-07-25T05:44:44.997Z,10.90
2022-07-25T05:45:44.998Z,10.80
2022-07-25T05:46:45.026Z,11.60
2022-07-25T05:47:44.985Z,10.90
2022-07-25T05:48:45.045Z,10.20
2022-07-25T05:49:44.960Z,10.40
2022-07-25T05:50:44.956Z,11.20
2022-07-25T05:51:44.946Z,10.90
2022-07-25T05:52:44.930Z,11.80
2022-07-25T05:53:44.925Z,10.60
2022-07-25T05:54:44.920Z,11.00
2022-07-25T05:55:44.926Z,11.20
2022-07-25T05:56:44.901Z,10.40
2022-07-25T05:57:44.887Z,11.20
2022-07-25T05:58:44.883Z,10.80
2022-07-25T05:59:44.876Z,11.30
2022-07-25T06:00:44.866Z,11.20
2022-07-25T06:01:44.983Z,10.40
2022-07-25T06:02:44.950Z,10.50
2022-07-25T06:03:44.840Z,10.20
2022-07-25T06:04:44.833Z,11.00
2022-07-25T06:05:44.829Z,11.40
2022-07-25T06:06:44.828Z,10.60
2022-07-25T06:07:44.837Z,11.00
2022-07-25T06:08:44.808Z,11.20
2022-07-25T06:09:44.800Z,10.80
2022-07-25T06:10:44.789Z,11.30
2022-07-25T06:11:51.053Z,10.30
2022-07-25T06:12:45.772Z,10.60
2022-07-25T06:13:44.776Z,11.90
2022-07-25T06:14:44.757Z,10.60
2022-07-25T06:15:44.785Z,10.60
2022-07-25T06:16:44.783Z,10.60
2022-07-25T06:17:44.741Z,14.00
2022-07-25T06:18:44.725Z,10.80
2022-07-25T06:19:44.725Z,11.10
2022-07-25T06:20:44.713Z,10.70
2022-07-25T06:21:44.744Z,10.70
2022-07-25T06:22:44.691Z,10.90
2022-07-25T06:23:44.693Z,11.20
2022-07-25T06:24:44.680Z,10.20
2022-07-25T06:25:49.968Z,11.20
2022-07-25T06:26:45.673Z,10.20
2022-07-25T06:27:44.654Z,11.10
2022-07-25T06:28:44.643Z,10.90
2022-07-25T06:29:44.658Z,10.20
2022-07-25T06:30:44.629Z,10.10
2022-07-25T06:31:46.386Z,10.70
2022-07-25T06:32:44.612Z,10.10
2022-07-25T06:33:44.620Z,11.50
2022-07-25T06:34:44.598Z,11.30
2022-07-25T06:35:44.605Z,10.10
2022-07-25T06:36:44.600Z,10.80
2022-07-25T06:37:44.595Z,10.00
2022-07-25T06:38:44.569Z,9.90
2022-07-25T06:39:46.080Z,9.60
2022-07-25T06:40:44.554Z,11.10
2022-07-25T06:41:44.563Z,10.40
2022-07-25T06:42:44.537Z,10.00
2022-07-25T06:43:44.547Z,10.70
2022-07-25T06:44:44.524Z,10.50
2022-07-25T06:45:44.565Z,9.70
2022-07-25T06:46:44.559Z,10.20
2022-07-25T06:47:44.512Z,10.50
2022-07-25T06:48:44.519Z,10.00
2022-07-25T06:49:44.489Z,10.00
2022-07-25T06:50:44.478Z,9.40
2022-07-25T06:51:44.484Z,10.00
2022-07-25T06:52:44.455Z,10.90
2022-07-25T06:53:44.472Z,9.60
2022-07-25T06:54:44.446Z,11.30
2022-07-25T06:55:44.447Z,10.80
2022-07-25T06:56:44.442Z,10.40
2022-07-25T06:57:44.428Z,10.40
2022-07-25T06:58:44.620Z,9.90
2022-07-25T06:59:44.417Z,9.80
2022-07-25T07:00:44.446Z,10.90
2022-07-25T07:01:49.499Z,10.10
2022-07-25T07:02:45.390Z,10.30
2022-07-25T07:03:44.428Z,10.10
2022-07-25T07:04:44.373Z,10.00
2022-07-25T07:05:44.367Z,9.70
2022-07-25T07:06:44.385Z,9.40
2022-07-25T07:07:47.542Z,9.60
2022-07-25T07:08:44.343Z,10.40
2022-07-25T07:09:44.343Z,10.50
2022-07-25T07:10:44.331Z,10.00
2022-07-25T07:11:44.514Z,9.80
2022-07-25T07:12:44.336Z,10.60
2022-07-25T07:13:44.309Z,9.30
2022-07-25T07:14:44.299Z,9.60
2022-07-25T07:15:44.319Z,10.90
2022-07-25T07:16:44.337Z,9.70
2022-07-25T07:17:44.277Z,10.30
2022-07-25T07:18:48.976Z,9.10
2022-07-25T07:19:45.262Z,10.40
2022-07-25T07:20:44.254Z,9.00
2022-07-25T07:21:44.488Z,9.80
2022-07-25T07:22:44.235Z,9.70
2022-07-25T07:23:44.232Z,9.50
2022-07-25T07:24:45.214Z,9.60
2022-07-25T07:25:44.265Z,9.70
2022-07-25T07:26:44.230Z,9.50
2022-07-25T07:27:44.204Z,10.10
2022-07-25T07:28:44.196Z,11.00
2022-07-25T07:29:44.185Z,9.10
2022-07-25T07:31:15.756Z,8.70
2022-07-25T07:31:45.257Z,11.00
2022-07-25T07:32:44.162Z,9.80
2022-07-25T07:33:44.153Z,10.10
2022-07-25T07:34:44.153Z,10.00
2022-07-25T07:35:44.138Z,10.00
2022-07-25T07:36:44.143Z,8.90
2022-07-25T07:37:44.530Z,10.50
2022-07-25T07:38:44.122Z,10.00
2022-07-25T07:39:44.106Z,9.70
2022-07-25T07:40:44.099Z,9.40
2022-07-25T07:41:44.186Z,10.60
2022-07-25T07:42:44.089Z,11.20
2022-07-25T07:43:44.083Z,9.80
2022-07-25T07:44:44.083Z,10.60
2022-07-25T07:45:44.065Z,10.00
2022-07-25T07:46:44.149Z,11.00
2022-07-25T07:47:44.047Z,10.90
2022-07-25T07:48:44.066Z,10.20
2022-07-25T07:49:48.370Z,12.50
2022-07-25T07:50:45.029Z,9.80
2022-07-25T07:51:44.059Z,9.70
2022-07-25T07:52:44.013Z,9.80
2022-07-25T07:53:44.002Z,9.00
2022-07-25T07:54:44.002Z,9.30
2022-07-25T07:55:43.998Z,10.10
2022-07-25T07:56:44.019Z,10.30
2022-07-25T07:57:43.975Z,11.00
2022-07-25T07:58:43.974Z,10.00
2022-07-25T07:59:43.962Z,10.80
2022-07-25T08:00:43.962Z,10.30
2022-07-25T08:01:44.018Z,9.20
2022-07-25T08:02:44.001Z,11.20
2022-07-25T08:03:43.948Z,10.40
2022-07-25T08:04:43.956Z,11.00
2022-07-25T08:05:43.919Z,10.50
2022-07-25T08:06:43.930Z,10.30
2022-07-25T08:07:43.901Z,10.50
2022-07-25T08:08:43.898Z,10.70
2022-07-25T08:09:43.888Z,9.70
2022-07-25T08:10:43.886Z,9.20
2022-07-25T08:11:43.891Z,9.30
2022-07-25T08:12:43.867Z,9.90
2022-07-25T08:13:43.881Z,10.70
2022-07-25T08:14:43.850Z,9.90
2022-07-25T08:15:43.907Z,9.30
2022-07-25T08:16:43.853Z,10.90
2022-07-25T08:17:43.829Z,11.90
2022-07-25T08:18:43.823Z,9.50
2022-07-25T08:19:43.817Z,10.60
2022-07-25T08:20:43.818Z,10.60
2022-07-25T08:21:43.818Z,10.10
2022-07-25T08:22:43.797Z,9.90
2022-07-25T08:23:43.789Z,9.80
2022-07-25T08:24:43.786Z,10.70
2022-07-25T08:25:43.772Z,11.50
2022-07-25T08:26:43.789Z,9.60
2022-07-25T08:27:43.763Z,10.20
2022-07-25T08:28:43.764Z,10.00
2022-07-25T08:29:43.799Z,10.00
2022-07-25T08:30:43.749Z,10.60
2022-07-25T08:31:43.802Z,9.80
2022-07-25T08:32:43.747Z,10.40
2022-07-25T08:33:43.717Z,10.50
2022-07-25T08:34:43.713Z,10.90
2022-07-25T08:35:43.704Z,10.60
2022-07-25T08:36:43.741Z,9.90
2022-07-25T08:37:43.709Z,9.20
2022-07-25T08:38:43.692Z,11.60
2022-07-25T08:39:43.676Z,9.60
2022-07-25T08:40:43.670Z,10.70
2022-07-25T08:41:43.662Z,9.60
2022-07-25T08:42:43.668Z,10.30
2022-07-25T08:43:43.642Z,10.50
2022-07-25T08:44:43.647Z,10.90
2022-07-25T08:45:43.657Z,10.50
2022-07-25T08:46:43.750Z,11.00
2022-07-25T08:47:43.638Z,9.60
2022-07-25T08:48:43.669Z,9.70
2022-07-25T08:49:43.612Z,9.50
2022-07-25T08:50:43.614Z,11.20
2022-07-25T08:51:43.600Z,9.90
2022-07-25T08:52:43.610Z,10.20
2022-07-25T08:53:43.579Z,10.40
2022-07-25T08:54:44.582Z,10.40
2022-07-25T08:55:43.576Z,10.40
2022-07-25T08:56:43.588Z,11.80
2022-07-25T08:57:43.574Z,10.40
2022-07-25T08:58:44.185Z,11.50
2022-07-25T08:59:43.545Z,9.10
2022-07-25T09:00:43.546Z,10.60
2022-07-25T09:01:43.578Z,10.30
2022-07-25T09:02:43.833Z,10.70
2022-07-25T09:03:43.600Z,10.00
2022-07-25T09:04:43.594Z,11.00
2022-07-25T09:05:43.508Z,9.50
2022-07-25T09:06:43.505Z,10.30
2022-07-25T09:07:43.515Z,9.00
2022-07-25T09:08:43.494Z,9.50
2022-07-25T09:09:43.489Z,10.80
2022-07-25T09:10:43.489Z,10.50
2022-07-25T09:11:43.476Z,12.10
2022-07-25T09:12:43.484Z,10.90
2022-07-25T09:13:43.462Z,9.90
2022-07-25T09:14:43.468Z,9.50
2022-07-25T09:15:43.487Z,9.40
2022-07-25T09:16:44.374Z,9.50
2022-07-25T09:17:43.450Z,10.30
2022-07-25T09:18:43.450Z,9.90
2022-07-25T09:19:43.425Z,9.30
2022-07-25T09:20:43.417Z,10.70
2022-07-25T09:21:44.235Z,9.50
2022-07-25T09:22:43.467Z,10.60
2022-07-25T09:23:43.400Z,10.30
2022-07-25T09:24:43.397Z,10.00
2022-07-25T09:25:43.388Z,9.50
2022-07-25T09:26:43.426Z,9.70
2022-07-25T09:27:43.445Z,10.20
2022-07-25T09:28:43.447Z,8.90
2022-07-25T09:29:43.370Z,9.70
2022-07-25T09:30:43.386Z,10.50
2022-07-25T09:31:43.403Z,9.30
2022-07-25T09:32:43.373Z,10.30
2022-07-25T09:33:43.383Z,10.20
2022-07-25T09:34:43.377Z,9.80
2022-07-25T09:35:43.328Z,8.90
2022-07-25T09:36:43.334Z,9.80
2022-07-25T09:37:43.342Z,8.30
2022-07-25T09:38:43.323Z,9.40
2022-07-25T09:39:46.362Z,9.70
2022-07-25T09:40:43.313Z,9.30
2022-07-25T09:41:43.300Z,10.40
2022-07-25T09:42:43.343Z,9.30
2022-07-25T09:43:43.285Z,10.00
2022-07-25T09:44:43.287Z,9.10
2022-07-25T09:45:43.274Z,9.50
2022-07-25T09:46:43.347Z,8.80
2022-07-25T09:47:43.281Z,9.50
2022-07-25T09:48:43.295Z,10.00
2022-07-25T09:49:43.295Z,9.70
2022-07-25T09:50:43.262Z,9.30
2022-07-25T09:51:43.248Z,8.00
2022-07-25T09:52:43.291Z,8.80
2022-07-25T09:53:43.240Z,9.60
2022-07-25T09:54:43.231Z,9.30
2022-07-25T09:55:43.222Z,8.80
2022-07-25T09:56:43.225Z,8.20
2022-07-25T09:57:43.236Z,8.50
2022-07-25T09:58:43.214Z,9.40
2022-07-25T09:59:43.205Z,8.70
2022-07-25T10:00:43.195Z,9.60
2022-07-25T10:01:43.281Z,8.30
2022-07-25T10:02:43.259Z,10.40
2022-07-25T10:03:43.181Z,8.00
2022-07-25T10:04:43.184Z,8.20
2022-07-25T10:05:43.166Z,8.50
2022-07-25T10:06:43.184Z,7.50
2022-07-25T10:07:43.167Z,9.30
2022-07-25T10:08:43.158Z,7.10
2022-07-25T10:09:43.240Z,8.00
2022-07-25T10:10:43.154Z,7.50
2022-07-25T10:11:43.138Z,7.40
2022-07-25T10:12:43.152Z,8.60
2022-07-25T10:13:43.125Z,7.30
2022-07-25T10:14:43.137Z,7.40
2022-07-25T10:15:43.121Z,7.20
2022-07-25T10:16:43.167Z,7.40
2022-07-25T10:17:43.137Z,6.80
2022-07-25T10:18:43.109Z,7.10
2022-07-25T10:19:48.914Z,7.60
2022-07-25T10:20:44.097Z,7.70
2022-07-25T10:21:43.129Z,6.80
2022-07-25T10:22:58.716Z,7.10
2022-07-25T10:23:44.083Z,7.10
2022-07-25T10:24:43.070Z,7.00
2022-07-25T10:25:47.225Z,7.00
2022-07-25T10:26:44.069Z,7.00
2022-07-25T10:27:43.076Z,7.00
2022-07-25T10:28:43.057Z,6.60
2022-07-25T10:29:43.085Z,6.90
2022-07-25T10:30:43.160Z,8.30
2022-07-25T10:31:49.435Z,6.90
2022-07-25T10:32:44.048Z,7.20
2022-07-25T10:33:43.076Z,7.40
2022-07-25T10:34:43.088Z,7.20
2022-07-25T10:35:43.015Z,7.60
2022-07-25T10:36:43.007Z,7.50
2022-07-25T10:37:47.280Z,7.30
2022-07-25T10:38:44.006Z,7.40
2022-07-25T10:39:42.989Z,8.20
2022-07-25T10:40:42.989Z,7.80
2022-07-25T10:41:42.984Z,7.70
2022-07-25T10:42:42.990Z,7.40
2022-07-25T10:43:48.187Z,8.10
2022-07-25T10:44:43.965Z,6.70
2022-07-25T10:45:43.046Z,7.60
2022-07-25T10:46:43.017Z,8.10
2022-07-25T10:47:42.961Z,7.90
2022-07-25T10:48:42.953Z,7.40
2022-07-25T10:50:00.143Z,7.90
2022-07-25T10:50:55.461Z,7.10
2022-07-25T10:51:43.918Z,7.20
2022-07-25T10:52:42.929Z,8.20
2022-07-25T10:53:42.908Z,8.20
2022-07-25T10:54:42.902Z,7.70
2022-07-25T10:55:42.897Z,7.20
2022-07-25T10:56:42.890Z,7.30
2022-07-25T10:58:01.285Z,7.00
2022-07-25T10:58:43.899Z,7.60
2022-07-25T10:59:42.872Z,6.70
2022-07-25T11:00:42.873Z,7.70
2022-07-25T11:01:42.934Z,7.60
2022-07-25T11:02:42.927Z,7.30
2022-07-25T11:03:42.863Z,8.30
2022-07-25T11:04:42.852Z,7.70
2022-07-25T11:05:42.875Z,7.30
2022-07-25T11:06:42.839Z,7.90
2022-07-25T11:07:58.605Z,7.70
2022-07-25T11:08:43.833Z,7.50
2022-07-25T11:09:42.829Z,7.00
2022-07-25T11:10:42.826Z,8.00
2022-07-25T11:11:42.811Z,7.10
2022-07-25T11:12:42.850Z,7.40
2022-07-25T11:13:42.829Z,7.40
2022-07-25T11:14:42.813Z,7.40
2022-07-25T11:15:42.797Z,8.50
2022-07-25T11:16:42.837Z,8.40
2022-07-25T11:17:42.784Z,7.00
2022-07-25T11:18:42.799Z,8.30
2022-07-25T11:19:42.780Z,7.00
2022-07-25T11:20:42.851Z,8.00
2022-07-25T11:21:42.765Z,8.30
2022-07-25T11:22:42.761Z,6.70
2022-07-25T11:23:42.775Z,6.90
2022-07-25T11:24:42.753Z,6.70
2022-07-25T11:25:42.768Z,7.30
2022-07-25T11:26:42.767Z,6.70
2022-07-25T11:27:42.741Z,6.60
2022-07-25T11:28:42.727Z,6.70
2022-07-25T11:29:42.899Z,6.90
2022-07-25T11:30:42.720Z,7.00
2022-07-25T11:31:42.761Z,6.70
2022-07-25T11:32:43.107Z,6.80
2022-07-25T11:33:42.726Z,8.40
2022-07-25T11:34:42.720Z,6.80
2022-07-25T11:35:42.704Z,7.70
2022-07-25T11:36:42.697Z,7.30
2022-07-25T11:37:42.690Z,6.50
2022-07-25T11:38:42.683Z,6.90
2022-07-25T11:39:42.695Z,6.80
2022-07-25T11:40:42.679Z,7.30
2022-07-25T11:41:42.682Z,6.60
2022-07-25T11:42:42.660Z,7.70
2022-07-25T11:43:42.665Z,7.30
2022-07-25T11:44:47.445Z,6.20
2022-07-25T11:45:43.696Z,6.70
2022-07-25T11:46:42.655Z,7.10
2022-07-25T11:47:42.646Z,7.60
2022-07-25T11:48:42.705Z,7.20
2022-07-25T11:49:42.653Z,6.80
2022-07-25T11:50:42.638Z,6.90
2022-07-25T11:51:42.623Z,6.40
2022-07-25T11:52:42.624Z,6.80
2022-07-25T11:53:42.625Z,7.20
2022-07-25T11:54:42.629Z,6.70
2022-07-25T11:55:42.615Z,6.40
2022-07-25T11:56:43.587Z,7.00
2022-07-25T11:57:42.604Z,6.30
2022-07-25T11:58:42.615Z,6.80
2022-07-25T11:59:42.614Z,6.40
2022-07-25T12:00:42.588Z,5.80
2022-07-25T12:01:42.582Z,6.70
2022-07-25T12:02:42.719Z,7.70
2022-07-25T12:03:42.609Z,6.50
2022-07-25T12:04:42.599Z,7.50
2022-07-25T12:05:42.567Z,6.40
2022-07-25T12:06:42.561Z,6.40
2022-07-25T12:07:42.567Z,7.00
2022-07-25T12:08:42.559Z,6.80
2022-07-25T12:09:42.600Z,6.90
2022-07-25T12:10:42.546Z,7.30
2022-07-25T12:11:42.542Z,7.10
2022-07-25T12:12:42.532Z,7.10
2022-07-25T12:13:42.536Z,7.00
2022-07-25T12:14:42.536Z,7.20
2022-07-25T12:15:42.517Z,6.90
2022-07-25T12:16:42.588Z,7.30
2022-07-25T12:17:42.510Z,6.80
2022-07-25T12:18:42.504Z,7.90
2022-07-25T12:19:42.521Z,7.10
2022-07-25T12:20:42.497Z,8.80
2022-07-25T12:21:42.492Z,7.30
2022-07-25T12:22:42.489Z,7.20
2022-07-25T12:23:42.487Z,6.70
2022-07-25T12:24:42.475Z,6.60
2022-07-25T12:25:42.493Z,7.00
2022-07-25T12:26:42.464Z,7.60
2022-07-25T12:27:42.465Z,7.70
2022-07-25T12:28:42.473Z,7.20
2022-07-25T12:29:42.457Z,8.00
2022-07-25T12:30:42.702Z,7.90
2022-07-25T12:31:42.445Z,7.40
2022-07-25T12:32:42.451Z,6.50
2022-07-25T12:33:42.434Z,7.80
2022-07-25T12:34:42.427Z,7.10
2022-07-25T12:35:42.439Z,8.20
2022-07-25T12:36:42.414Z,7.90
2022-07-25T12:37:42.411Z,7.50
2022-07-25T12:38:42.404Z,7.30
2022-07-25T12:39:42.404Z,6.70
2022-07-25T12:40:42.459Z,6.80
2022-07-25T12:41:42.395Z,7.50
2022-07-25T12:42:42.398Z,6.60
2022-07-25T12:43:42.378Z,7.70
2022-07-25T12:44:42.371Z,8.90
2022-07-25T12:45:42.419Z,6.70
2022-07-25T12:46:48.777Z,7.90
2022-07-25T12:47:43.448Z,7.50
2022-07-25T12:48:42.390Z,7.00
2022-07-25T12:49:42.351Z,7.50
2022-07-25T12:50:42.371Z,7.30
2022-07-25T12:51:42.352Z,8.20
2022-07-25T12:52:42.332Z,7.70
2022-07-25T12:53:42.754Z,7.60
2022-07-25T12:54:42.328Z,6.50
2022-07-25T12:55:42.342Z,7.10
2022-07-25T12:56:42.328Z,8.00
2022-07-25T12:57:42.312Z,7.60
2022-07-25T12:58:42.305Z,7.60
2022-07-25T12:59:42.307Z,6.60
2022-07-25T13:00:42.307Z,8.10
2022-07-25T13:01:42.372Z,7.10
2022-07-25T13:02:42.330Z,7.60
2022-07-25T13:03:42.316Z,7.30
2022-07-25T13:04:42.286Z,7.10
2022-07-25T13:05:42.308Z,7.80
2022-07-25T13:06:42.265Z,7.10
2022-07-25T13:07:42.271Z,8.10
2022-07-25T13:08:42.258Z,6.90